createdAt,value
2018-11-28T00:00:50.447Z,25.4
2018-11-28T00:02:50.389Z,24.8
2018-11-28T00:04:49.781Z,24.8
2018-11-28T00:06:49.925Z,25.9
2018-11-28T00:08:49.691Z,24.8
2018-11-28T00:10:50.563Z,25.5
2018-11-28T00:12:50.350Z,25.5
2018-11-28T00:14:50.292Z,26.2
2018-11-28T00:16:50.383Z,26.0
2018-11-28T00:18:50.366Z,26.4
2018-11-28T00:20:50.138Z,25.3
2018-11-28T00:22:50.020Z,25.4
2018-11-28T00:24:49.859Z,25.4
2018-11-28T00:26:49.967Z,26.3
2018-11-28T00:28:49.815Z,24.8
2018-11-28T00:30:49.654Z,24.8
2018-11-28T00:32:50.505Z,24.8
2018-11-28T00:34:50.029Z,24.3
2018-11-28T00:36:50.121Z,24.1
2018-11-28T00:38:50.039Z,23.8
2018-11-28T00:40:50.049Z,24.2
2018-11-28T00:42:50.016Z,24.2
2018-11-28T00:44:49.968Z,23.8
2018-11-28T00:46:50.322Z,23.9
2018-11-28T00:48:50.257Z,23.0
2018-11-28T00:50:50.367Z,24.0
2018-11-28T00:52:50.336Z,24.0
2018-11-28T00:54:50.289Z,22.7
2018-11-28T00:56:50.482Z,23.1
2018-11-28T00:58:50.376Z,23.7
2018-11-28T01:00:50.438Z,23.4
2018-11-28T01:02:49.584Z,23.4
2018-11-28T01:04:50.057Z,22.9
2018-11-28T01:06:50.195Z,22.9
2018-11-28T01:08:50.136Z,23.2
2018-11-28T01:10:50.164Z,24.4
2018-11-28T01:12:50.144Z,24.4
2018-11-28T01:14:50.380Z,24.4
2018-11-28T01:16:50.376Z,24.5
2018-11-28T01:18:50.416Z,25.8
2018-11-28T01:20:50.467Z,25.8
2018-11-28T01:22:50.419Z,24.7
2018-11-28T01:24:50.438Z,25.0
2018-11-28T01:26:49.642Z,24.3
2018-11-28T01:28:49.699Z,24.3
2018-11-28T01:30:49.802Z,25.0
2018-11-28T01:32:49.783Z,25.2
2018-11-28T01:34:49.977Z,24.6
2018-11-28T01:36:50.150Z,24.2
2018-11-28T01:38:50.162Z,25.7
2018-11-28T01:40:50.114Z,25.7
2018-11-28T01:42:50.068Z,24.7
2018-11-28T01:44:50.028Z,25.8
2018-11-28T01:46:50.204Z,24.8
2018-11-28T01:48:50.197Z,25.8
2018-11-28T01:50:50.243Z,25.8
2018-11-28T01:52:50.218Z,24.6
2018-11-28T01:54:50.275Z,24.7
2018-11-28T01:56:50.426Z,24.7
2018-11-28T01:58:50.440Z,24.7
2018-11-28T02:00:50.440Z,24.7
2018-11-28T02:02:50.409Z,24.5
2018-11-28T02:04:49.960Z,25.2
2018-11-28T02:06:50.101Z,25.8
2018-11-28T02:08:50.032Z,25.8
2018-11-28T02:10:50.041Z,25.6
2018-11-28T02:12:50.059Z,26.2
2018-11-28T02:14:50.148Z,24.9
2018-11-28T02:16:50.436Z,26.1
2018-11-28T02:18:50.421Z,26.1
2018-11-28T02:20:49.629Z,26.5
2018-11-28T02:22:49.887Z,25.7
2018-11-28T02:24:50.078Z,24.8
2018-11-28T02:26:50.456Z,25.4
2018-11-28T02:28:49.558Z,25.4
2018-11-28T02:30:49.683Z,25.1
2018-11-28T02:32:49.883Z,26.3
2018-11-28T02:34:50.174Z,25.9
2018-11-28T02:36:50.346Z,26.5
2018-11-28T02:38:50.182Z,26.5
2018-11-28T02:40:49.979Z,26.7
2018-11-28T02:42:49.759Z,27.4
2018-11-28T02:44:49.605Z,26.6
2018-11-28T02:46:49.612Z,26.6
2018-11-28T02:48:49.515Z,26.8
2018-11-28T02:50:50.283Z,26.4
2018-11-28T02:52:50.236Z,27.1
2018-11-28T02:54:50.008Z,26.5
2018-11-28T02:56:50.165Z,26.5
2018-11-28T02:58:49.959Z,27.4
2018-11-28T03:00:49.824Z,26.9
2018-11-28T03:02:49.748Z,26.5
2018-11-28T03:04:50.177Z,26.5
2018-11-28T03:06:50.249Z,26.7
2018-11-28T03:08:49.616Z,25.7
2018-11-28T03:10:49.539Z,26.8
2018-11-28T03:12:49.645Z,26.0
2018-11-28T03:14:50.412Z,26.0
2018-11-28T03:16:49.607Z,27.0
2018-11-28T03:18:50.394Z,26.7
2018-11-28T03:20:50.291Z,26.4
2018-11-28T03:22:50.231Z,26.7
2018-11-28T03:24:50.192Z,26.7
2018-11-28T03:26:49.704Z,26.7
2018-11-28T03:28:49.620Z,27.0
2018-11-28T03:30:49.698Z,26.4
2018-11-28T03:32:49.688Z,27.0
2018-11-28T03:34:50.255Z,26.7
2018-11-28T03:36:50.441Z,26.7
2018-11-28T03:38:50.390Z,27.5
2018-11-28T03:40:50.366Z,28.0
2018-11-28T03:42:49.575Z,26.2
2018-11-28T03:44:49.527Z,26.2
2018-11-28T03:46:49.761Z,27.4
2018-11-28T03:48:49.772Z,26.0
2018-11-28T03:50:49.811Z,26.6
2018-11-28T03:52:49.803Z,26.2
2018-11-28T03:54:49.827Z,26.2
2018-11-28T03:56:50.010Z,26.8
2018-11-28T03:58:49.819Z,27.3
2018-11-28T04:00:49.827Z,27.9
2018-11-28T04:02:49.576Z,27.9
2018-11-28T04:04:49.741Z,27.4
2018-11-28T04:06:49.914Z,26.9
2018-11-28T04:08:49.750Z,26.9
2018-11-28T04:10:49.631Z,27.0
2018-11-28T04:12:50.431Z,27.0
2018-11-28T04:14:50.302Z,27.5
2018-11-28T04:16:49.533Z,26.8
2018-11-28T04:18:50.450Z,26.8
2018-11-28T04:20:50.325Z,26.3
2018-11-28T04:22:50.148Z,26.3
2018-11-28T04:24:49.974Z,26.9
2018-11-28T04:26:49.943Z,27.7
2018-11-28T04:28:49.765Z,27.7
2018-11-28T04:30:49.683Z,27.1
2018-11-28T04:32:49.653Z,27.1
2018-11-28T04:34:49.813Z,27.2
2018-11-28T04:36:49.995Z,27.7
2018-11-28T04:38:49.834Z,28.2
2018-11-28T04:40:49.752Z,28.6
2018-11-28T04:42:49.636Z,28.6
2018-11-28T04:44:49.539Z,28.0
2018-11-28T04:46:49.805Z,27.1
2018-11-28T04:48:49.755Z,27.6
2018-11-28T04:50:49.744Z,28.3
2018-11-28T04:52:49.713Z,28.3
2018-11-28T04:54:49.833Z,28.0
2018-11-28T04:56:49.969Z,28.9
2018-11-28T04:58:50.009Z,28.1
2018-11-28T05:00:49.991Z,28.4
2018-11-28T05:02:49.984Z,28.4
2018-11-28T05:04:50.239Z,28.9
2018-11-28T05:06:49.565Z,28.4
2018-11-28T05:08:49.567Z,28.5
2018-11-28T05:10:49.585Z,29.1
2018-11-28T05:12:49.533Z,29.1
2018-11-28T05:14:49.527Z,28.9
2018-11-28T05:16:49.811Z,28.5
2018-11-28T05:18:49.870Z,28.5
2018-11-28T05:20:49.808Z,28.0
2018-11-28T05:22:49.735Z,27.7
2018-11-28T05:24:49.715Z,28.0
2018-11-28T05:26:50.250Z,28.6
2018-11-28T05:28:50.301Z,28.6
2018-11-28T05:30:50.225Z,28.7
2018-11-28T05:32:50.270Z,29.8
2018-11-28T05:34:49.643Z,29.4
2018-11-28T05:36:49.781Z,28.8
2018-11-28T05:38:49.844Z,29.1
2018-11-28T05:40:49.887Z,29.1
2018-11-28T05:42:49.933Z,28.6
2018-11-28T05:44:49.865Z,28.0
2018-11-28T05:46:50.053Z,28.6
2018-11-28T05:48:50.057Z,28.9
2018-11-28T05:50:49.964Z,28.9
2018-11-28T05:52:49.928Z,27.9
2018-11-28T05:54:49.910Z,28.6
2018-11-28T05:56:50.248Z,28.3
2018-11-28T05:58:50.234Z,31.8
2018-11-28T06:00:50.249Z,31.8
2018-11-28T06:02:50.271Z,29.2
2018-11-28T06:04:49.708Z,28.9
2018-11-28T06:06:49.907Z,29.3
2018-11-28T06:08:49.975Z,29.3
2018-11-28T06:10:49.933Z,30.1
2018-11-28T06:12:49.902Z,29.1
2018-11-28T06:14:49.892Z,29.9
2018-11-28T06:16:50.003Z,28.4
2018-11-28T06:18:49.973Z,28.4
2018-11-28T06:20:49.919Z,28.3
2018-11-28T06:22:49.950Z,27.0
2018-11-28T06:24:50.007Z,29.9
2018-11-28T06:26:50.163Z,27.5
2018-11-28T06:28:50.088Z,27.5
2018-11-28T06:30:50.048Z,30.0
2018-11-28T06:32:51.766Z,28.2
2018-11-28T06:34:50.158Z,29.2
2018-11-28T06:36:49.939Z,29.2
2018-11-28T06:38:49.877Z,29.5
2018-11-28T06:40:49.882Z,28.8
2018-11-28T06:42:49.915Z,28.8
2018-11-28T06:44:49.931Z,31.2
2018-11-28T06:46:50.074Z,31.2
2018-11-28T06:48:50.161Z,27.3
2018-11-28T06:50:50.116Z,28.0
2018-11-28T06:52:50.116Z,30.5
2018-11-28T06:54:50.112Z,28.2
2018-11-28T06:56:50.255Z,28.2
2018-11-28T06:58:50.270Z,29.6
2018-11-28T07:00:50.305Z,33.0
2018-11-28T07:02:50.207Z,29.1
2018-11-28T07:04:50.467Z,32.5
2018-11-28T07:06:49.789Z,32.5
2018-11-28T07:08:49.820Z,30.5
2018-11-28T07:10:49.787Z,30.5
2018-11-28T07:12:49.796Z,29.9
2018-11-28T07:14:49.790Z,33.6
2018-11-28T07:16:50.009Z,33.6
2018-11-28T07:18:49.950Z,33.6
2018-11-28T07:20:50.028Z,28.3
2018-11-28T07:22:50.137Z,29.9
2018-11-28T07:24:50.222Z,28.4
2018-11-28T07:26:50.513Z,28.4
2018-11-28T07:28:49.551Z,27.8
2018-11-28T07:30:49.551Z,29.8
2018-11-28T07:32:49.720Z,29.8
2018-11-28T07:34:49.920Z,29.7
2018-11-28T07:36:49.954Z,29.7
2018-11-28T07:38:49.782Z,30.0
2018-11-28T07:40:49.659Z,31.0
2018-11-28T07:42:49.575Z,31.0
2018-11-28T07:44:50.354Z,30.2
2018-11-28T07:46:50.461Z,28.2
2018-11-28T07:48:50.239Z,27.8
2018-11-28T07:50:50.220Z,29.0
2018-11-28T07:52:50.166Z,30.0
2018-11-28T07:54:50.165Z,30.0
2018-11-28T07:56:50.283Z,28.9
2018-11-28T07:58:50.284Z,32.6
2018-11-28T08:00:50.298Z,32.6
2018-11-28T08:02:50.294Z,28.7
2018-11-28T08:04:49.605Z,28.7
2018-11-28T08:06:49.790Z,29.4
2018-11-28T08:08:49.862Z,27.4
2018-11-28T08:10:49.864Z,28.0
2018-11-28T08:12:49.781Z,27.9
2018-11-28T08:14:49.732Z,27.9
2018-11-28T08:16:49.867Z,27.8
2018-11-28T08:18:49.874Z,31.3
2018-11-28T08:20:49.812Z,31.3
2018-11-28T08:22:49.795Z,28.3
2018-11-28T08:24:49.830Z,27.3
2018-11-28T08:26:50.044Z,29.4
2018-11-28T08:28:50.421Z,27.4
2018-11-28T08:30:50.497Z,28.3
2018-11-28T08:32:49.652Z,28.3
2018-11-28T08:34:50.096Z,27.1
2018-11-28T08:36:50.222Z,28.0
2018-11-28T08:38:50.179Z,28.0
2018-11-28T08:40:50.112Z,27.5
2018-11-28T08:42:50.109Z,27.5
2018-11-28T08:44:50.217Z,29.8
2018-11-28T08:46:50.470Z,30.4
2018-11-28T08:48:50.388Z,26.4
2018-11-28T08:50:50.348Z,28.5
2018-11-28T08:52:50.384Z,28.5
2018-11-28T08:54:50.337Z,25.6
2018-11-28T08:56:50.461Z,25.9
2018-11-28T08:58:50.495Z,27.1
2018-11-28T09:00:49.547Z,29.8
2018-11-28T09:02:50.509Z,29.8
2018-11-28T09:04:49.955Z,26.3
2018-11-28T09:06:49.986Z,26.3
2018-11-28T09:08:49.982Z,26.3
2018-11-28T09:10:49.961Z,26.0
2018-11-28T09:12:49.961Z,26.0
2018-11-28T09:14:49.966Z,25.3
2018-11-28T09:16:50.111Z,25.1
2018-11-28T09:18:50.112Z,25.1
2018-11-28T09:20:50.194Z,24.9
2018-11-28T09:22:50.385Z,24.9
2018-11-28T09:24:50.443Z,23.3
2018-11-28T09:26:49.679Z,23.3
2018-11-28T09:28:49.627Z,25.5
2018-11-28T09:30:49.722Z,25.5
2018-11-28T09:32:49.824Z,25.7
2018-11-28T09:34:50.243Z,26.2
2018-11-28T09:36:50.513Z,25.6
2018-11-28T09:38:49.544Z,25.4
2018-11-28T09:40:49.586Z,25.4
2018-11-28T09:42:49.548Z,25.2
2018-11-28T09:44:49.701Z,24.5
2018-11-28T09:46:49.984Z,22.5
2018-11-28T09:48:50.086Z,24.6
2018-11-28T09:50:50.157Z,24.6
2018-11-28T09:52:50.032Z,25.1
2018-11-28T09:54:49.937Z,24.5
2018-11-28T09:56:50.164Z,23.1
2018-11-28T09:58:50.138Z,23.1
2018-11-28T10:00:50.098Z,23.4
2018-11-28T10:02:50.019Z,23.3
2018-11-28T10:04:50.291Z,21.1
2018-11-28T10:06:50.383Z,27.5
2018-11-28T10:08:50.358Z,27.5
2018-11-28T10:10:50.340Z,23.9
2018-11-28T10:12:50.417Z,24.2
2018-11-28T10:14:50.360Z,22.8
2018-11-28T10:16:51.623Z,23.0
2018-11-28T10:18:50.023Z,23.0
2018-11-28T10:20:50.039Z,22.7
2018-11-28T10:22:50.096Z,22.9
2018-11-28T10:24:50.207Z,23.1
2018-11-28T10:26:50.364Z,24.3
2018-11-28T10:28:50.377Z,24.3
2018-11-28T10:30:50.346Z,23.6
2018-11-28T10:32:50.353Z,23.1
2018-11-28T10:34:49.907Z,23.7
2018-11-28T10:36:50.105Z,23.7
2018-11-28T10:38:50.051Z,21.3
2018-11-28T10:40:50.141Z,20.9
2018-11-28T10:42:50.145Z,20.9
2018-11-28T10:44:49.518Z,20.9
2018-11-28T10:46:49.948Z,21.5
2018-11-28T10:48:50.172Z,21.5
2018-11-28T10:50:50.367Z,21.0
2018-11-28T10:52:49.587Z,21.0
2018-11-28T10:54:49.967Z,21.4
2018-11-28T10:56:50.743Z,21.4
2018-11-28T10:58:49.877Z,21.6
2018-11-28T11:00:50.080Z,20.5
2018-11-28T11:02:50.227Z,21.1
2018-11-28T11:04:49.727Z,21.1
2018-11-28T11:06:50.128Z,20.6
2018-11-28T11:08:50.277Z,20.5
2018-11-28T11:10:50.388Z,20.3
2018-11-28T11:12:49.560Z,20.5
2018-11-28T11:14:49.913Z,20.5
2018-11-28T11:16:50.307Z,19.6
2018-11-28T11:18:50.438Z,19.9
2018-11-28T11:20:49.668Z,19.9
2018-11-28T11:22:49.923Z,19.6
2018-11-28T11:24:50.402Z,20.1
2018-11-28T11:26:49.821Z,20.1
2018-11-28T11:28:49.926Z,19.4
2018-11-28T11:30:50.068Z,18.0
2018-11-28T11:32:50.189Z,19.7
2018-11-28T11:34:49.593Z,19.9
2018-11-28T11:36:49.833Z,19.9
2018-11-28T11:38:50.016Z,19.3
2018-11-28T11:40:50.294Z,20.2
2018-11-28T11:42:50.502Z,20.2
2018-11-28T11:44:49.810Z,20.2
2018-11-28T11:46:50.144Z,32.6
2018-11-28T11:48:50.240Z,23.3
2018-11-28T11:50:50.484Z,17.9
2018-11-28T11:52:49.802Z,19.4
2018-11-28T11:54:49.958Z,19.4
2018-11-28T11:56:50.500Z,20.4
2018-11-28T11:58:49.813Z,21.0
2018-11-28T12:00:50.039Z,19.8
2018-11-28T12:02:50.234Z,27.4
2018-11-28T12:04:49.727Z,27.4
2018-11-28T12:06:50.193Z,20.0
2018-11-28T12:08:49.578Z,18.2
2018-11-28T12:10:49.726Z,18.5
2018-11-28T12:12:51.985Z,18.5
2018-11-28T12:14:50.319Z,17.9
2018-11-28T12:16:49.656Z,18.1
2018-11-28T12:18:49.851Z,17.7
2018-11-28T12:20:50.096Z,18.5
2018-11-28T12:22:50.304Z,17.7
2018-11-28T12:24:50.447Z,17.7
2018-11-28T12:26:50.021Z,16.9
2018-11-28T12:28:50.264Z,18.9
2018-11-28T12:30:50.417Z,20.3
2018-11-28T12:32:49.602Z,18.1
2018-11-28T12:34:50.654Z,18.1
2018-11-28T12:36:50.052Z,17.3
2018-11-28T12:38:50.217Z,16.9
2018-11-28T12:40:50.349Z,17.8
2018-11-28T12:42:49.584Z,17.8
2018-11-28T12:44:49.703Z,19.0
2018-11-28T12:46:50.048Z,17.8
2018-11-28T12:48:50.178Z,17.6
2018-11-28T12:50:50.550Z,17.1
2018-11-28T12:52:49.740Z,17.1
2018-11-28T12:54:49.834Z,21.6
2018-11-28T12:56:50.096Z,24.5
2018-11-28T12:58:50.190Z,17.4
2018-11-28T13:00:50.338Z,18.2
2018-11-28T13:02:49.597Z,18.2
2018-11-28T13:04:50.163Z,17.7
2018-11-28T13:06:50.475Z,16.4
2018-11-28T13:08:49.548Z,17.4
2018-11-28T13:10:49.688Z,17.1
2018-11-28T13:12:49.897Z,17.1
2018-11-28T13:14:50.097Z,16.9
2018-11-28T13:16:49.559Z,17.7
2018-11-28T13:18:49.959Z,16.3
2018-11-28T13:20:50.160Z,16.3
2018-11-28T13:22:50.338Z,16.8
2018-11-28T13:24:49.860Z,14.7
2018-11-28T13:26:50.255Z,15.5
2018-11-28T13:28:50.647Z,15.3
2018-11-28T13:30:49.924Z,15.3
2018-11-28T13:32:50.131Z,15.3
2018-11-28T13:34:49.974Z,14.7
2018-11-28T13:36:50.254Z,15.1
2018-11-28T13:38:50.391Z,15.1
2018-11-28T13:40:49.624Z,15.3
2018-11-28T13:42:49.912Z,12.9
2018-11-28T13:44:50.127Z,14.6
2018-11-28T13:46:49.556Z,14.9
2018-11-28T13:48:49.852Z,13.8
2018-11-28T13:50:50.046Z,13.8
2018-11-28T13:52:50.235Z,14.5
2018-11-28T13:57:01.912Z,19.8
2018-11-28T13:58:49.560Z,14.2
2018-11-28T14:00:49.731Z,14.2
2018-11-28T14:02:49.951Z,14.5
2018-11-28T14:04:49.526Z,15.4
2018-11-28T14:06:49.831Z,15.2
2018-11-28T14:08:49.963Z,15.0
2018-11-28T14:10:50.105Z,15.0
2018-11-28T14:12:50.273Z,15.3
2018-11-28T14:14:50.414Z,14.9
2018-11-28T14:16:49.885Z,15.7
2018-11-28T14:18:49.984Z,15.7
2018-11-28T14:20:50.142Z,15.4
2018-11-28T14:22:50.314Z,15.0
2018-11-28T14:24:50.492Z,15.0
2018-11-28T14:26:49.872Z,15.0
2018-11-28T14:28:49.994Z,14.2
2018-11-28T14:30:50.234Z,14.4
2018-11-28T14:32:49.522Z,14.7
2018-11-28T14:34:50.351Z,14.6
2018-11-28T14:36:49.759Z,15.3
2018-11-28T14:38:50.432Z,15.3
2018-11-28T14:40:49.788Z,14.2
2018-11-28T14:42:49.951Z,15.1
2018-11-28T14:44:50.063Z,15.2
2018-11-28T14:46:50.468Z,14.9
2018-11-28T14:48:49.606Z,14.9
2018-11-28T14:50:49.901Z,18.3
2018-11-28T14:52:49.737Z,15.6
2018-11-28T14:54:49.873Z,15.6
2018-11-28T14:56:50.167Z,16.4
2018-11-28T14:58:50.257Z,16.4
2018-11-28T15:00:50.447Z,14.2
2018-11-28T15:02:50.005Z,15.9
2018-11-28T15:04:49.609Z,16.0
2018-11-28T15:06:50.073Z,16.0
2018-11-28T15:08:50.224Z,16.4
2018-11-28T15:10:50.479Z,21.9
2018-11-28T15:12:49.525Z,16.7
2018-11-28T15:14:49.731Z,16.7
2018-11-28T15:16:50.189Z,17.1
2018-11-28T15:18:50.450Z,16.0
2018-11-28T15:20:49.640Z,16.9
2018-11-28T15:22:49.776Z,16.9
2018-11-28T15:24:49.984Z,16.9
2018-11-28T15:26:50.524Z,16.6
2018-11-28T15:28:49.709Z,16.9
2018-11-28T15:30:50.040Z,17.3
2018-11-28T15:32:50.315Z,18.8
2018-11-28T15:34:50.188Z,16.3
2018-11-28T15:36:49.650Z,16.3
2018-11-28T15:38:49.776Z,19.7
2018-11-28T15:40:50.078Z,18.2
2018-11-28T15:42:50.271Z,19.1
2018-11-28T15:44:50.380Z,19.1
2018-11-28T15:46:49.806Z,18.2
2018-11-28T15:48:50.073Z,18.8
2018-11-28T15:50:50.230Z,19.8
2018-11-28T15:52:50.412Z,19.4
2018-11-28T15:54:49.684Z,19.4
2018-11-28T15:56:50.116Z,21.6
2018-11-28T15:58:50.299Z,19.9
2018-11-28T16:00:50.490Z,19.9
2018-11-28T16:02:49.879Z,19.5
2018-11-28T16:04:49.622Z,18.9
2018-11-28T16:06:49.913Z,20.1
2018-11-28T16:08:50.147Z,19.4
2018-11-28T16:10:50.346Z,21.3
2018-11-28T16:12:49.637Z,21.3
2018-11-28T16:14:49.757Z,22.4
2018-11-28T16:16:50.187Z,22.4
2018-11-28T16:18:50.409Z,22.4
2018-11-28T16:20:49.587Z,22.7
2018-11-28T16:22:49.767Z,22.7
2018-11-28T16:24:49.908Z,24.9
2018-11-28T16:26:50.280Z,24.9
2018-11-28T16:28:49.601Z,24.2
2018-11-28T16:30:49.893Z,21.8
2018-11-28T16:32:50.085Z,21.8
2018-11-28T16:34:49.636Z,22.6
2018-11-28T16:36:49.959Z,23.0
2018-11-28T16:38:50.134Z,23.4
2018-11-28T16:40:50.320Z,22.8
2018-11-28T16:42:49.546Z,22.8
2018-11-28T16:44:49.757Z,21.5
2018-11-28T16:46:50.082Z,22.2
2018-11-28T16:48:50.203Z,22.2
2018-11-28T16:50:50.429Z,23.3
2018-11-28T16:52:49.632Z,23.3
2018-11-28T16:54:49.761Z,25.2
2018-11-28T16:56:50.183Z,24.2
2018-11-28T16:58:50.301Z,24.5
2018-11-28T17:00:50.497Z,24.5
2018-11-28T17:02:49.657Z,22.6
2018-11-28T17:04:50.364Z,23.5
2018-11-28T17:06:49.709Z,24.0
2018-11-28T17:08:49.924Z,24.0
2018-11-28T17:10:50.147Z,24.2
2018-11-28T17:12:50.343Z,24.2
2018-11-28T17:14:49.540Z,22.2
2018-11-28T17:16:49.863Z,23.0
2018-11-28T17:18:50.095Z,22.5
2018-11-28T17:20:50.264Z,23.9
2018-11-28T17:22:49.534Z,23.9
2018-11-28T17:24:49.792Z,23.4
2018-11-28T17:26:50.213Z,23.2
2018-11-28T17:28:50.402Z,24.1
2018-11-28T17:30:49.717Z,24.1
2018-11-28T17:32:50.497Z,24.6
2018-11-28T17:34:49.949Z,24.2
2018-11-28T17:36:50.436Z,24.2
2018-11-28T17:38:49.571Z,24.2
2018-11-28T17:40:49.775Z,25.9
2018-11-28T17:42:50.009Z,26.7
2018-11-28T17:44:50.177Z,23.8
2018-11-28T17:46:49.549Z,25.0
2018-11-28T17:48:49.841Z,25.9
2018-11-28T17:50:50.095Z,25.9
2018-11-28T17:52:50.274Z,25.9
2018-11-28T17:54:50.353Z,18.9
2018-11-28T17:56:49.614Z,27.1
2018-11-28T17:58:49.638Z,27.1
2018-11-28T18:00:49.557Z,26.7
2018-11-28T18:02:49.546Z,27.0
2018-11-28T18:04:50.121Z,27.9
2018-11-28T18:06:50.418Z,27.3
2018-11-28T18:08:49.546Z,27.3
2018-11-28T18:10:49.860Z,28.6
2018-11-28T18:12:50.028Z,28.5
2018-11-28T18:14:50.391Z,25.3
2018-11-28T18:16:49.711Z,27.8
2018-11-28T18:18:49.851Z,27.8
2018-11-28T18:20:50.580Z,24.7
2018-11-28T18:22:49.807Z,26.6
2018-11-28T18:24:49.936Z,28.0
2018-11-28T18:26:50.038Z,28.0
2018-11-28T18:28:50.047Z,29.7
2018-11-28T18:30:50.332Z,28.3
2018-11-28T18:32:50.463Z,30.2
2018-11-28T18:34:50.129Z,28.3
2018-11-28T18:36:50.492Z,28.3
2018-11-28T18:38:49.714Z,28.7
2018-11-28T18:40:49.964Z,27.9
2018-11-28T18:42:50.136Z,28.0
2018-11-28T18:44:50.270Z,28.2
2018-11-28T18:46:49.733Z,29.0
2018-11-28T18:48:49.972Z,29.0
2018-11-28T18:50:49.990Z,23.3
2018-11-28T18:52:49.986Z,25.4
2018-11-28T18:54:49.973Z,29.5
2018-11-28T18:56:50.180Z,29.5
2018-11-28T18:58:50.193Z,29.7
2018-11-28T19:00:50.049Z,29.2
2018-11-28T19:02:49.887Z,28.7
2018-11-28T19:04:50.266Z,28.7
2018-11-28T19:06:49.593Z,29.6
2018-11-28T19:08:49.652Z,29.2
2018-11-28T19:10:49.632Z,27.1
2018-11-28T19:12:49.699Z,27.1
2018-11-28T19:14:49.790Z,31.5
2018-11-28T19:16:50.014Z,29.8
2018-11-28T19:18:50.152Z,30.1
2018-11-28T19:20:50.229Z,29.6
2018-11-28T19:22:50.265Z,30.9
2018-11-28T19:24:50.398Z,31.0
2018-11-28T19:26:49.741Z,31.0
2018-11-28T19:28:49.771Z,29.1
2018-11-28T19:30:49.837Z,31.8
2018-11-28T19:32:49.993Z,31.8
2018-11-28T19:34:50.467Z,31.7
2018-11-28T19:36:50.017Z,31.7
2018-11-28T19:38:50.246Z,30.4
2018-11-28T19:40:50.364Z,29.9
2018-11-28T19:42:49.564Z,31.1
2018-11-28T19:44:49.750Z,28.5
2018-11-28T19:46:50.127Z,28.5
2018-11-28T19:48:50.305Z,30.3
2018-11-28T19:50:49.535Z,30.5
2018-11-28T19:52:49.863Z,30.5
2018-11-28T19:54:50.238Z,29.3
2018-11-28T19:56:49.566Z,29.7
2018-11-28T19:58:49.774Z,31.4
2018-11-28T20:00:49.940Z,29.0
2018-11-28T20:02:50.105Z,31.4
2018-11-28T20:04:49.547Z,31.4
2018-11-28T20:06:50.082Z,30.2
2018-11-28T20:08:50.325Z,30.7
2018-11-28T20:10:49.664Z,30.2
2018-11-28T20:12:49.873Z,30.2
2018-11-28T20:14:50.011Z,30.1
2018-11-28T20:16:50.293Z,31.8
2018-11-28T20:18:50.476Z,31.1
2018-11-28T20:20:51.031Z,31.1
2018-11-28T20:22:50.212Z,36.7
2018-11-28T20:24:50.405Z,36.7
2018-11-28T20:26:51.008Z,33.0
2018-11-28T20:28:50.173Z,30.9
2018-11-28T20:30:49.670Z,30.9
2018-11-28T20:32:50.368Z,30.5
2018-11-28T20:34:50.124Z,31.7
2018-11-28T20:36:49.546Z,33.2
2018-11-28T20:38:49.820Z,27.9
2018-11-28T20:40:50.024Z,27.9
2018-11-28T20:42:50.217Z,30.2
2018-11-28T20:44:50.422Z,30.2
2018-11-28T20:46:49.933Z,30.2
2018-11-28T20:48:50.250Z,30.2
2018-11-28T20:50:50.391Z,28.2
2018-11-28T20:52:55.292Z,28.2
2018-11-28T20:54:49.525Z,28.4
2018-11-28T20:56:50.141Z,29.9
2018-11-28T20:58:50.343Z,29.3
2018-11-28T21:00:49.570Z,29.3
2018-11-28T21:02:49.760Z,27.9
2018-11-28T21:04:50.307Z,28.0
2018-11-28T21:06:49.626Z,31.7
2018-11-28T21:08:49.808Z,31.7
2018-11-28T21:10:50.043Z,28.7
2018-11-28T21:12:50.258Z,28.7
2018-11-28T21:14:50.498Z,27.8
2018-11-28T21:16:49.943Z,29.1
2018-11-28T21:18:50.188Z,28.6
2018-11-28T21:20:50.344Z,28.6
2018-11-28T21:22:49.546Z,27.7
2018-11-28T21:24:49.778Z,23.3
2018-11-28T21:26:50.119Z,28.6
2018-11-28T21:28:50.475Z,28.6
2018-11-28T21:30:49.711Z,27.7
2018-11-28T21:32:50.072Z,28.9
2018-11-28T21:34:49.530Z,24.5
2018-11-28T21:36:49.959Z,29.5
2018-11-28T21:38:50.206Z,29.5
2018-11-28T21:40:49.562Z,29.8
2018-11-28T21:42:49.808Z,29.8
2018-11-28T21:44:49.994Z,29.0
2018-11-28T21:46:50.518Z,28.5
2018-11-28T21:48:49.921Z,28.7
2018-11-28T21:50:50.287Z,28.7
2018-11-28T21:52:49.574Z,28.4
2018-11-28T21:54:49.791Z,28.6
2018-11-28T21:56:50.289Z,28.6
2018-11-28T21:58:50.511Z,26.7
2018-11-28T22:00:49.697Z,26.7
2018-11-28T22:02:49.956Z,26.7
2018-11-28T22:04:50.384Z,28.2
2018-11-28T22:06:49.867Z,28.2
2018-11-28T22:08:50.124Z,28.0
2018-11-28T22:10:50.268Z,28.0
2018-11-28T22:12:50.433Z,27.7
2018-11-28T22:14:49.545Z,28.5
2018-11-28T22:16:49.934Z,28.2
2018-11-28T22:18:50.086Z,27.7
2018-11-28T22:20:50.254Z,27.7
2018-11-28T22:22:49.548Z,27.9
2018-11-28T22:24:49.820Z,27.9
2018-11-28T22:26:50.227Z,32.2
2018-11-28T22:28:50.353Z,32.2
2018-11-28T22:30:49.554Z,28.7
2018-11-28T22:32:49.742Z,28.2
2018-11-28T22:34:50.216Z,28.2
2018-11-28T22:36:49.568Z,28.3
2018-11-28T22:38:49.717Z,28.3
2018-11-28T22:40:49.875Z,26.7
2018-11-28T22:42:49.850Z,27.2
2018-11-28T22:44:49.806Z,27.2
2018-11-28T22:46:50.095Z,28.0
2018-11-28T22:48:50.282Z,27.6
2018-11-28T22:50:50.250Z,28.1
2018-11-28T22:52:50.318Z,26.5
2018-11-28T22:54:50.346Z,28.3
2018-11-28T22:56:49.562Z,28.3
2018-11-28T22:58:49.793Z,28.7
2018-11-28T23:00:49.800Z,28.8
2018-11-28T23:02:49.985Z,28.8
2018-11-28T23:04:50.328Z,28.0
2018-11-28T23:06:49.598Z,26.7
2018-11-28T23:08:49.635Z,27.4
2018-11-28T23:10:49.646Z,26.5
2018-11-28T23:12:49.626Z,31.5
2018-11-28T23:14:49.700Z,28.4
2018-11-28T23:16:50.016Z,27.7
2018-11-28T23:18:50.011Z,27.7
2018-11-28T23:20:49.992Z,28.8
2018-11-28T23:22:49.943Z,27.4
2018-11-28T23:24:49.993Z,27.4
2018-11-28T23:26:50.282Z,27.6
2018-11-28T23:28:50.315Z,28.2
2018-11-28T23:30:50.377Z,27.3
2018-11-28T23:32:50.355Z,28.7
2018-11-28T23:34:49.773Z,27.5
2018-11-28T23:36:49.977Z,27.5
2018-11-28T23:38:49.965Z,28.9
2018-11-28T23:40:49.984Z,27.7
2018-11-28T23:42:50.018Z,27.7
2018-11-28T23:44:50.012Z,27.7
2018-11-28T23:46:50.230Z,27.2
2018-11-28T23:48:50.244Z,27.3
2018-11-28T23:50:50.332Z,26.5
2018-11-28T23:52:50.277Z,27.4
2018-11-28T23:54:50.353Z,28.2
2018-11-28T23:56:49.585Z,28.2
2018-11-28T23:58:49.875Z,28.2
